TAF LEST
LEST 090500Z 0906/1006 27009KT 8000 SCT015 BKN025 TX12/0912Z TN08/1006Z TEMPO 0906/1006 3000 RADZ BKN010 TEMPO 0906/0909 0800 DZ BCFG BKN002 BKN005 PROB40 TEMPO 0906/0907 0350 DZ BCFG BKN001 TEMPO 0920/1006 0800 DZ BCFG BKN002 BKN005=
METAR LEST
LEST 090800Z 27005KT 200V300 9000 SCT007 BKN010 BKN025 10/09 Q1023 TEMPO 3000 RA BR=
LEST 090730Z 28007KT 230V320 6000 SCT006 BKN015 BKN030 10/09 Q1023 TEMPO 3000 RA BR=
LEST 090700Z 28005KT 240V320 8000 SCT006 BKN015 BKN030 10/09 Q1023 TEMPO 3000 RA BR=
COR LEST 090630Z 28006KT 230V330 8000 -DZ SCT005 BKN017 BKN030 10/09 Q1023 TEMPO 3000 RA BR=
LEST 090600Z 29007KT 250V330 2800 -RA BR BKN005 BKN018 10/09 Q1023 NOSIG=
WC LEST
WS LEST
WV LEST